DAL1386 KATL-KMIA
Flight info
| Callsign | DAL1386 |
|---|---|
| Flight time | 1h 24m |
| Altitude | 37000 |
| Route | BANNG3 LUCKK HONID FROGZ5 |
| Aircraft | A321/M-SDE3FGHIRWY/LB1 |
Departure
| Time | 2026-05-04 21:17 |
|---|---|
| Airport | Hartsfield Jackson Atlanta International Airport (KATL) |
Arrival
| Time | 2026-05-04 22:41 |
|---|---|
| Airport | Miami International Airport (KMIA) |
| Time | Latitude | Longitude | Altitude | Speed | Heading |
|---|---|---|---|---|---|
| 2026-05-04 20:58 | 33.63828 | -84.43203 | 1007 ft | 0 kts | 275° |
| 2026-05-04 21:05 | 33.63828 | -84.43202 | 1016 ft | 2 kts | 275° |
| 2026-05-04 21:05 | 33.63828 | -84.43172 | 1006 ft | 4 kts | 258° |
| 2026-05-04 21:05 | 33.63838 | -84.43144 | 1006 ft | 4 kts | 226° |
| 2026-05-04 21:05 | 33.63857 | -84.43130 | 1006 ft | 2 kts | 180° |
| 2026-05-04 21:06 | 33.63862 | -84.43130 | 1006 ft | 0 kts | 180° |
| 2026-05-04 21:09 | 33.63832 | -84.43130 | 1006 ft | 10 kts | 180° |
| 2026-05-04 21:09 | 33.63753 | -84.43130 | 1006 ft | 11 kts | 180° |
| 2026-05-04 21:09 | 33.63681 | -84.43110 | 1006 ft | 10 kts | 142° |
| 2026-05-04 21:10 | 33.63665 | -84.43031 | 1006 ft | 11 kts | 90° |
| 2026-05-04 21:10 | 33.63664 | -84.42927 | 1006 ft | 13 kts | 90° |
| 2026-05-04 21:10 | 33.63664 | -84.42822 | 1006 ft | 12 kts | 90° |
| 2026-05-04 21:10 | 33.63657 | -84.42714 | 1007 ft | 16 kts | 97° |
| 2026-05-04 21:11 | 33.63655 | -84.42573 | 1007 ft | 16 kts | 90° |
| 2026-05-04 21:11 | 33.63655 | -84.42440 | 1007 ft | 16 kts | 90° |
| 2026-05-04 21:11 | 33.63655 | -84.42314 | 1007 ft | 15 kts | 90° |
| 2026-05-04 21:11 | 33.63655 | -84.42194 | 1007 ft | 16 kts | 90° |
| 2026-05-04 21:12 | 33.63655 | -84.42031 | 1007 ft | 24 kts | 90° |
| 2026-05-04 21:12 | 33.63655 | -84.41819 | 1006 ft | 26 kts | 90° |
| 2026-05-04 21:12 | 33.63655 | -84.41603 | 1006 ft | 27 kts | 90° |
| 2026-05-04 21:12 | 33.63655 | -84.41419 | 1006 ft | 20 kts | 89° |
| 2026-05-04 21:13 | 33.63655 | -84.41247 | 1006 ft | 21 kts | 90° |
| 2026-05-04 21:13 | 33.63654 | -84.41063 | 1006 ft | 23 kts | 90° |
| 2026-05-04 21:13 | 33.63633 | -84.40912 | 1006 ft | 10 kts | 145° |
| 2026-05-04 21:13 | 33.63575 | -84.40908 | 1006 ft | 2 kts | 179° |
| 2026-05-04 21:14 | 33.63572 | -84.40908 | 1006 ft | 0 kts | 179° |
| 2026-05-04 21:16 | 33.63540 | -84.40908 | 1007 ft | 10 kts | 180° |
| 2026-05-04 21:16 | 33.63473 | -84.40940 | 1007 ft | 9 kts | 246° |
| 2026-05-04 21:16 | 33.63471 | -84.41080 | 1006 ft | 44 kts | 270° |
| 2026-05-04 21:17 | 33.63469 | -84.41832 | 1007 ft | 132 kts | 269° |
| 2026-05-04 21:17 | 33.63462 | -84.43181 | 1256 ft | 177 kts | 266° |
| 2026-05-04 21:17 | 33.63463 | -84.44691 | 2208 ft | 182 kts | 266° |
| 2026-05-04 21:17 | 33.63461 | -84.46203 | 3175 ft | 180 kts | 267° |
| 2026-05-04 21:18 | 33.63456 | -84.47751 | 3575 ft | 193 kts | 268° |
| 2026-05-04 21:18 | 33.63451 | -84.49450 | 3719 ft | 215 kts | 268° |
| 2026-05-04 21:18 | 33.63447 | -84.51350 | 3910 ft | 241 kts | 267° |
| 2026-05-04 21:18 | 33.63442 | -84.53450 | 4309 ft | 261 kts | 268° |
| 2026-05-04 21:19 | 33.63440 | -84.55655 | 5046 ft | 267 kts | 268° |
| 2026-05-04 21:19 | 33.63443 | -84.57872 | 5876 ft | 269 kts | 268° |
| 2026-05-04 21:19 | 33.63448 | -84.60156 | 6717 ft | 272 kts | 268° |
| 2026-05-04 21:19 | 33.63413 | -84.62435 | 7502 ft | 274 kts | 261° |
| 2026-05-04 21:20 | 33.62908 | -84.64638 | 8267 ft | 275 kts | 243° |
| 2026-05-04 21:20 | 33.61856 | -84.66515 | 9054 ft | 276 kts | 225° |
| 2026-05-04 21:20 | 33.60341 | -84.67927 | 9879 ft | 277 kts | 210° |
| 2026-05-04 21:20 | 33.58603 | -84.68935 | 10586 ft | 280 kts | 199° |
| 2026-05-04 21:21 | 33.56674 | -84.69381 | 11271 ft | 286 kts | 184° |
| 2026-05-04 21:21 | 33.54668 | -84.69190 | 11924 ft | 293 kts | 172° |
| 2026-05-04 21:21 | 33.52638 | -84.68793 | 12618 ft | 297 kts | 173° |
| 2026-05-04 21:21 | 33.50582 | -84.68398 | 13317 ft | 302 kts | 173° |
| 2026-05-04 21:22 | 33.48490 | -84.68003 | 13990 ft | 306 kts | 173° |
| 2026-05-04 21:22 | 33.46370 | -84.67605 | 14624 ft | 309 kts | 173° |
| 2026-05-04 21:22 | 33.44236 | -84.67204 | 15279 ft | 312 kts | 174° |
| 2026-05-04 21:22 | 33.42093 | -84.66713 | 15916 ft | 317 kts | 166° |
| 2026-05-04 21:23 | 33.39984 | -84.65742 | 16203 ft | 336 kts | 159° |
| 2026-05-04 21:23 | 33.37789 | -84.64569 | 16329 ft | 355 kts | 159° |
| 2026-05-04 21:23 | 33.35483 | -84.63322 | 16661 ft | 367 kts | 158° |
| 2026-05-04 21:23 | 33.33139 | -84.62048 | 17232 ft | 372 kts | 159° |
| 2026-05-04 21:24 | 33.30769 | -84.60759 | 17854 ft | 376 kts | 159° |
| 2026-05-04 21:24 | 33.28382 | -84.59461 | 18463 ft | 379 kts | 159° |
| 2026-05-04 21:24 | 33.25970 | -84.58155 | 18985 ft | 382 kts | 159° |
| 2026-05-04 21:24 | 33.23537 | -84.56842 | 19482 ft | 386 kts | 159° |
| 2026-05-04 21:25 | 33.21107 | -84.55532 | 19975 ft | 390 kts | 159° |
| 2026-05-04 21:25 | 33.18623 | -84.54196 | 20470 ft | 394 kts | 160° |
| 2026-05-04 21:25 | 33.16104 | -84.52843 | 20959 ft | 397 kts | 160° |
| 2026-05-04 21:25 | 33.13567 | -84.51483 | 21450 ft | 401 kts | 160° |
| 2026-05-04 21:26 | 33.11011 | -84.50114 | 21921 ft | 405 kts | 160° |
| 2026-05-04 21:26 | 33.08420 | -84.48728 | 22402 ft | 409 kts | 160° |
| 2026-05-04 21:26 | 33.05819 | -84.47338 | 22877 ft | 412 kts | 160° |
| 2026-05-04 21:26 | 33.03189 | -84.45932 | 23331 ft | 416 kts | 160° |
| 2026-05-04 21:27 | 33.00536 | -84.44508 | 23752 ft | 420 kts | 160° |
| 2026-05-04 21:27 | 32.97841 | -84.43167 | 24123 ft | 420 kts | 166° |
| 2026-05-04 21:27 | 32.95020 | -84.42328 | 24505 ft | 416 kts | 176° |
| 2026-05-04 21:27 | 32.92148 | -84.42052 | 24875 ft | 414 kts | 184° |
| 2026-05-04 21:28 | 32.89254 | -84.42007 | 25253 ft | 416 kts | 184° |
| 2026-05-04 21:28 | 32.86347 | -84.41955 | 25634 ft | 419 kts | 184° |
| 2026-05-04 21:28 | 32.83423 | -84.41898 | 26015 ft | 422 kts | 184° |
| 2026-05-04 21:28 | 32.80484 | -84.41839 | 26390 ft | 424 kts | 184° |
| 2026-05-04 21:29 | 32.77521 | -84.41775 | 26767 ft | 427 kts | 184° |
| 2026-05-04 21:29 | 32.74540 | -84.41711 | 27123 ft | 430 kts | 184° |
| 2026-05-04 21:29 | 32.72550 | -84.41670 | 27358 ft | 431 kts | 184° |
| 2026-05-04 21:29 | 32.68524 | -84.41589 | 27828 ft | 435 kts | 184° |
| 2026-05-04 21:30 | 32.65490 | -84.41527 | 28184 ft | 437 kts | 184° |
| 2026-05-04 21:30 | 32.63472 | -84.41487 | 28410 ft | 439 kts | 184° |
| 2026-05-04 21:30 | 32.60400 | -84.41422 | 28757 ft | 442 kts | 184° |
| 2026-05-04 21:30 | 32.56280 | -84.41340 | 29207 ft | 445 kts | 184° |
| 2026-05-04 21:31 | 32.51104 | -84.41234 | 29742 ft | 449 kts | 184° |
| 2026-05-04 21:31 | 32.47973 | -84.41169 | 30021 ft | 451 kts | 185° |
| 2026-05-04 21:31 | 32.44863 | -84.41109 | 30274 ft | 454 kts | 185° |
| 2026-05-04 21:32 | 32.41687 | -84.41046 | 30516 ft | 456 kts | 185° |
| 2026-05-04 21:32 | 32.38507 | -84.40984 | 30790 ft | 458 kts | 185° |
| 2026-05-04 21:32 | 32.35311 | -84.40923 | 31071 ft | 460 kts | 185° |
| 2026-05-04 21:32 | 32.32102 | -84.40865 | 31334 ft | 462 kts | 185° |
| 2026-05-04 21:33 | 32.28879 | -84.40814 | 31706 ft | 462 kts | 185° |
| 2026-05-04 21:33 | 32.25671 | -84.40753 | 32099 ft | 461 kts | 185° |
| 2026-05-04 21:33 | 32.22462 | -84.40685 | 32493 ft | 460 kts | 185° |
| 2026-05-04 21:33 | 32.19258 | -84.40617 | 32800 ft | 461 kts | 186° |
| 2026-05-04 21:34 | 32.16042 | -84.40551 | 33127 ft | 462 kts | 186° |
| 2026-05-04 21:34 | 32.12830 | -84.40487 | 33482 ft | 462 kts | 187° |
| 2026-05-04 21:34 | 32.09625 | -84.40420 | 33840 ft | 462 kts | 187° |
| 2026-05-04 21:34 | 32.06408 | -84.40353 | 34175 ft | 461 kts | 187° |
| 2026-05-04 21:35 | 32.03196 | -84.40286 | 34474 ft | 461 kts | 187° |
| 2026-05-04 21:35 | 31.99986 | -84.40222 | 34744 ft | 462 kts | 187° |
| 2026-05-04 21:35 | 31.96764 | -84.40158 | 35009 ft | 462 kts | 187° |
| 2026-05-04 21:35 | 31.93595 | -84.40095 | 35215 ft | 463 kts | 188° |
| 2026-05-04 21:36 | 31.90361 | -84.40030 | 35424 ft | 465 kts | 188° |
| 2026-05-04 21:36 | 31.87121 | -84.39964 | 35666 ft | 466 kts | 188° |
| 2026-05-04 21:36 | 31.83880 | -84.39896 | 35926 ft | 466 kts | 188° |
| 2026-05-04 21:36 | 31.80641 | -84.39831 | 36187 ft | 466 kts | 188° |
| 2026-05-04 21:37 | 31.77392 | -84.39769 | 36433 ft | 466 kts | 188° |
| 2026-05-04 21:37 | 31.74147 | -84.39704 | 36683 ft | 467 kts | 188° |
| 2026-05-04 21:37 | 31.70898 | -84.39638 | 36921 ft | 467 kts | 188° |
| 2026-05-04 21:37 | 31.67654 | -84.39573 | 37051 ft | 467 kts | 188° |
| 2026-05-04 21:38 | 31.64381 | -84.39345 | 37073 ft | 475 kts | 181° |
| 2026-05-04 21:38 | 31.57859 | -84.37787 | 37081 ft | 482 kts | 176° |
| 2026-05-04 21:39 | 31.51307 | -84.36114 | 37076 ft | 481 kts | 176° |
| 2026-05-04 21:39 | 31.44758 | -84.34459 | 37074 ft | 481 kts | 176° |
| 2026-05-04 21:40 | 31.38203 | -84.32797 | 37021 ft | 481 kts | 176° |
| 2026-05-04 21:40 | 31.31641 | -84.31138 | 37053 ft | 483 kts | 176° |
| 2026-05-04 21:41 | 31.25072 | -84.29489 | 37059 ft | 483 kts | 176° |
| 2026-05-04 21:41 | 31.18515 | -84.27842 | 37077 ft | 481 kts | 176° |
| 2026-05-04 21:42 | 31.11973 | -84.26205 | 37075 ft | 480 kts | 176° |
| 2026-05-04 21:42 | 31.05451 | -84.24573 | 37051 ft | 479 kts | 176° |
| 2026-05-04 21:43 | 30.98939 | -84.22938 | 37058 ft | 478 kts | 176° |
| 2026-05-04 21:43 | 30.92435 | -84.21310 | 37066 ft | 478 kts | 176° |
| 2026-05-04 21:44 | 30.85966 | -84.19698 | 37068 ft | 478 kts | 176° |
| 2026-05-04 21:44 | 30.79473 | -84.18082 | 37032 ft | 477 kts | 176° |
| 2026-05-04 21:45 | 30.72988 | -84.16461 | 37050 ft | 476 kts | 176° |
| 2026-05-04 21:45 | 30.66510 | -84.14849 | 37052 ft | 476 kts | 176° |
| 2026-05-04 21:46 | 30.60035 | -84.13243 | 37051 ft | 476 kts | 176° |
| 2026-05-04 21:46 | 30.53564 | -84.11642 | 37049 ft | 476 kts | 176° |
| 2026-05-04 21:47 | 30.47084 | -84.10034 | 37049 ft | 476 kts | 176° |
| 2026-05-04 21:47 | 30.40607 | -84.08425 | 37054 ft | 476 kts | 175° |
| 2026-05-04 21:48 | 30.34332 | -84.05632 | 37045 ft | 494 kts | 156° |
| 2026-05-04 21:48 | 30.28369 | -84.01646 | 37045 ft | 495 kts | 156° |
| 2026-05-04 21:49 | 30.22399 | -83.97682 | 37040 ft | 494 kts | 156° |
| 2026-05-04 21:49 | 30.16429 | -83.93730 | 37062 ft | 494 kts | 156° |
| 2026-05-04 21:50 | 30.10464 | -83.89790 | 37073 ft | 493 kts | 157° |
| 2026-05-04 21:50 | 30.04506 | -83.85857 | 37074 ft | 492 kts | 157° |
| 2026-05-04 21:51 | 29.98572 | -83.81943 | 37071 ft | 491 kts | 157° |
| 2026-05-04 21:51 | 29.92679 | -83.78061 | 37044 ft | 490 kts | 156° |
| 2026-05-04 21:52 | 29.86763 | -83.74168 | 37062 ft | 489 kts | 156° |
| 2026-05-04 21:52 | 29.80864 | -83.70288 | 37067 ft | 488 kts | 156° |
| 2026-05-04 21:53 | 29.74969 | -83.66421 | 37066 ft | 487 kts | 156° |
| 2026-05-04 21:53 | 29.69077 | -83.62561 | 37063 ft | 487 kts | 156° |
| 2026-05-04 21:54 | 29.63192 | -83.58713 | 37037 ft | 486 kts | 156° |
| 2026-05-04 21:54 | 29.57315 | -83.54872 | 37056 ft | 485 kts | 156° |
| 2026-05-04 21:55 | 29.51446 | -83.51034 | 37068 ft | 484 kts | 156° |
| 2026-05-04 21:55 | 29.45596 | -83.47220 | 37068 ft | 483 kts | 156° |
| 2026-05-04 21:56 | 29.39791 | -83.43451 | 37063 ft | 482 kts | 156° |
| 2026-05-04 21:56 | 29.33944 | -83.39658 | 37041 ft | 481 kts | 156° |
| 2026-05-04 21:57 | 29.28123 | -83.35877 | 37060 ft | 481 kts | 156° |
| 2026-05-04 21:57 | 29.22170 | -83.32486 | 37056 ft | 475 kts | 162° |
| 2026-05-04 21:58 | 29.16129 | -83.29425 | 37059 ft | 474 kts | 162° |
| 2026-05-04 21:58 | 29.10100 | -83.26370 | 37049 ft | 474 kts | 162° |
| 2026-05-04 21:59 | 29.04114 | -83.23331 | 37026 ft | 473 kts | 162° |
| 2026-05-04 21:59 | 28.98091 | -83.20282 | 37042 ft | 473 kts | 162° |
| 2026-05-04 22:00 | 28.92070 | -83.17249 | 37046 ft | 473 kts | 162° |
| 2026-05-04 22:00 | 28.86040 | -83.14209 | 37044 ft | 472 kts | 162° |
| 2026-05-04 22:01 | 28.80071 | -83.11199 | 37049 ft | 472 kts | 162° |
| 2026-05-04 22:01 | 28.74068 | -83.08176 | 37024 ft | 471 kts | 162° |
| 2026-05-04 22:02 | 28.68067 | -83.05161 | 37029 ft | 471 kts | 162° |
| 2026-05-04 22:02 | 28.62056 | -83.02149 | 37034 ft | 471 kts | 162° |
| 2026-05-04 22:03 | 28.56071 | -82.99152 | 37037 ft | 471 kts | 162° |
| 2026-05-04 22:03 | 28.50068 | -82.96147 | 37040 ft | 471 kts | 162° |
| 2026-05-04 22:04 | 28.44056 | -82.93140 | 37011 ft | 472 kts | 162° |
| 2026-05-04 22:04 | 28.38044 | -82.90134 | 37024 ft | 472 kts | 162° |
| 2026-05-04 22:05 | 28.32024 | -82.87134 | 37027 ft | 473 kts | 162° |
| 2026-05-04 22:05 | 28.26034 | -82.84147 | 37034 ft | 473 kts | 162° |
| 2026-05-04 22:06 | 28.20001 | -82.81138 | 37040 ft | 473 kts | 162° |
| 2026-05-04 22:06 | 28.13975 | -82.78141 | 37010 ft | 473 kts | 163° |
| 2026-05-04 22:07 | 28.07948 | -82.75150 | 37033 ft | 472 kts | 163° |
| 2026-05-04 22:07 | 28.01914 | -82.72240 | 37036 ft | 467 kts | 168° |
| 2026-05-04 22:08 | 27.95682 | -82.70672 | 37036 ft | 456 kts | 178° |
| 2026-05-04 22:08 | 27.89429 | -82.69449 | 37026 ft | 456 kts | 178° |
| 2026-05-04 22:09 | 27.83185 | -82.68213 | 37006 ft | 456 kts | 178° |
| 2026-05-04 22:09 | 27.76964 | -82.66987 | 36747 ft | 460 kts | 178° |
| 2026-05-04 22:09 | 27.73795 | -82.66367 | 36462 ft | 461 kts | 178° |
| 2026-05-04 22:10 | 27.70644 | -82.65744 | 36210 ft | 458 kts | 178° |
| 2026-05-04 22:10 | 27.67511 | -82.65121 | 35964 ft | 456 kts | 178° |
| 2026-05-04 22:10 | 27.64388 | -82.64500 | 35717 ft | 454 kts | 178° |
| 2026-05-04 22:10 | 27.61293 | -82.63891 | 35477 ft | 452 kts | 178° |
| 2026-05-04 22:11 | 27.58202 | -82.63288 | 35238 ft | 450 kts | 178° |
| 2026-05-04 22:11 | 27.55123 | -82.62690 | 35001 ft | 447 kts | 178° |
| 2026-05-04 22:11 | 27.52066 | -82.62064 | 34766 ft | 447 kts | 176° |
| 2026-05-04 22:11 | 27.49024 | -82.61295 | 34532 ft | 448 kts | 173° |
| 2026-05-04 22:12 | 27.46009 | -82.60409 | 34304 ft | 447 kts | 172° |
| 2026-05-04 22:12 | 27.43018 | -82.59467 | 34082 ft | 446 kts | 171° |
| 2026-05-04 22:12 | 27.40040 | -82.58511 | 33976 ft | 443 kts | 171° |
| 2026-05-04 22:13 | 27.34088 | -82.56671 | 34008 ft | 444 kts | 172° |
| 2026-05-04 22:13 | 27.28107 | -82.54920 | 34008 ft | 444 kts | 173° |
| 2026-05-04 22:14 | 27.22130 | -82.53196 | 34005 ft | 443 kts | 173° |
| 2026-05-04 22:14 | 27.16161 | -82.51463 | 34010 ft | 443 kts | 173° |
| 2026-05-04 22:15 | 27.10237 | -82.49725 | 33998 ft | 443 kts | 173° |
| 2026-05-04 22:15 | 27.04265 | -82.47972 | 34000 ft | 443 kts | 173° |
| 2026-05-04 22:16 | 26.98217 | -82.46213 | 33999 ft | 457 kts | 173° |
| 2026-05-04 22:16 | 26.92029 | -82.43984 | 33672 ft | 480 kts | 160° |
| 2026-05-04 22:16 | 26.89170 | -82.42002 | 33192 ft | 486 kts | 148° |
| 2026-05-04 22:17 | 26.87444 | -82.40385 | 32889 ft | 488 kts | 144° |
| 2026-05-04 22:17 | 26.84903 | -82.37899 | 32424 ft | 483 kts | 145° |
| 2026-05-04 22:17 | 26.82370 | -82.35439 | 31971 ft | 478 kts | 145° |
| 2026-05-04 22:17 | 26.79857 | -82.33020 | 31528 ft | 475 kts | 146° |
| 2026-05-04 22:18 | 26.76530 | -82.29844 | 30945 ft | 473 kts | 146° |
| 2026-05-04 22:18 | 26.74843 | -82.28241 | 30656 ft | 472 kts | 146° |
| 2026-05-04 22:18 | 26.72344 | -82.25867 | 30231 ft | 470 kts | 146° |
| 2026-05-04 22:18 | 26.69859 | -82.23508 | 29767 ft | 468 kts | 146° |
| 2026-05-04 22:19 | 26.67412 | -82.21178 | 29291 ft | 465 kts | 146° |
| 2026-05-04 22:19 | 26.64958 | -82.18836 | 28775 ft | 463 kts | 146° |
| 2026-05-04 22:19 | 26.62484 | -82.16468 | 28298 ft | 460 kts | 146° |
| 2026-05-04 22:19 | 26.60094 | -82.14179 | 27848 ft | 457 kts | 146° |
| 2026-05-04 22:20 | 26.57688 | -82.11879 | 27388 ft | 454 kts | 146° |
| 2026-05-04 22:20 | 26.55291 | -82.09587 | 26932 ft | 451 kts | 145° |
| 2026-05-04 22:20 | 26.52912 | -82.07316 | 26500 ft | 448 kts | 145° |
| 2026-05-04 22:20 | 26.50562 | -82.05033 | 26071 ft | 446 kts | 144° |
| 2026-05-04 22:21 | 26.48257 | -82.02726 | 25637 ft | 444 kts | 143° |
| 2026-05-04 22:21 | 26.45977 | -82.00405 | 25218 ft | 444 kts | 143° |
| 2026-05-04 22:21 | 26.43694 | -81.98075 | 24803 ft | 449 kts | 142° |
| 2026-05-04 22:21 | 26.41382 | -81.95723 | 24397 ft | 449 kts | 143° |
| 2026-05-04 22:22 | 26.39077 | -81.93388 | 23990 ft | 447 kts | 143° |
| 2026-05-04 22:22 | 26.36779 | -81.91071 | 23607 ft | 444 kts | 143° |
| 2026-05-04 22:22 | 26.34492 | -81.88772 | 23136 ft | 441 kts | 143° |
| 2026-05-04 22:22 | 26.32217 | -81.86486 | 22642 ft | 438 kts | 143° |
| 2026-05-04 22:23 | 26.29963 | -81.84226 | 22183 ft | 434 kts | 143° |
| 2026-05-04 22:23 | 26.27729 | -81.81989 | 21730 ft | 430 kts | 143° |
| 2026-05-04 22:23 | 26.25529 | -81.79745 | 21287 ft | 428 kts | 139° |
| 2026-05-04 22:23 | 26.23619 | -81.77198 | 21008 ft | 430 kts | 128° |
| 2026-05-04 22:24 | 26.22124 | -81.74294 | 20998 ft | 434 kts | 118° |
| 2026-05-04 22:24 | 26.20813 | -81.71252 | 20999 ft | 435 kts | 118° |
| 2026-05-04 22:24 | 26.19504 | -81.68219 | 20995 ft | 435 kts | 118° |
| 2026-05-04 22:24 | 26.18188 | -81.65181 | 20730 ft | 435 kts | 118° |
| 2026-05-04 22:25 | 26.16876 | -81.62163 | 20254 ft | 431 kts | 118° |
| 2026-05-04 22:25 | 26.15591 | -81.59210 | 19788 ft | 428 kts | 119° |
| 2026-05-04 22:25 | 26.14301 | -81.56251 | 19339 ft | 424 kts | 119° |
| 2026-05-04 22:25 | 26.13013 | -81.53305 | 18876 ft | 421 kts | 119° |
| 2026-05-04 22:26 | 26.11734 | -81.50384 | 18433 ft | 418 kts | 119° |
| 2026-05-04 22:26 | 26.10464 | -81.47490 | 17938 ft | 415 kts | 119° |
| 2026-05-04 22:26 | 26.09200 | -81.44612 | 17429 ft | 412 kts | 119° |
| 2026-05-04 22:26 | 26.07945 | -81.41756 | 16925 ft | 410 kts | 119° |
| 2026-05-04 22:27 | 26.06697 | -81.38921 | 16452 ft | 407 kts | 119° |
| 2026-05-04 22:27 | 26.05474 | -81.36128 | 16055 ft | 398 kts | 119° |
| 2026-05-04 22:27 | 26.04275 | -81.33374 | 15668 ft | 394 kts | 119° |
| 2026-05-04 22:27 | 26.03090 | -81.30641 | 15297 ft | 390 kts | 119° |
| 2026-05-04 22:28 | 26.01911 | -81.27924 | 14911 ft | 388 kts | 119° |
| 2026-05-04 22:28 | 26.00744 | -81.25242 | 14539 ft | 383 kts | 119° |
| 2026-05-04 22:28 | 25.99586 | -81.22587 | 14173 ft | 380 kts | 119° |
| 2026-05-04 22:28 | 25.98434 | -81.19950 | 13781 ft | 378 kts | 120° |
| 2026-05-04 22:29 | 25.97286 | -81.17324 | 13374 ft | 377 kts | 119° |
| 2026-05-04 22:29 | 25.96145 | -81.14714 | 12960 ft | 374 kts | 119° |
| 2026-05-04 22:29 | 25.95013 | -81.12127 | 12563 ft | 371 kts | 119° |
| 2026-05-04 22:29 | 25.93891 | -81.09568 | 12169 ft | 368 kts | 119° |
| 2026-05-04 22:30 | 25.92773 | -81.07025 | 11769 ft | 364 kts | 119° |
| 2026-05-04 22:30 | 25.91669 | -81.04512 | 11385 ft | 361 kts | 119° |
| 2026-05-04 22:30 | 25.90615 | -81.02040 | 11004 ft | 356 kts | 117° |
| 2026-05-04 22:30 | 25.89636 | -80.99552 | 10611 ft | 337 kts | 115° |
| 2026-05-04 22:31 | 25.88761 | -80.97217 | 10238 ft | 321 kts | 115° |
| 2026-05-04 22:31 | 25.87931 | -80.94978 | 9881 ft | 317 kts | 115° |
| 2026-05-04 22:31 | 25.87086 | -80.92719 | 9475 ft | 316 kts | 115° |
| 2026-05-04 22:31 | 25.86237 | -80.90474 | 9076 ft | 314 kts | 115° |
| 2026-05-04 22:32 | 25.85388 | -80.88246 | 8669 ft | 312 kts | 115° |
| 2026-05-04 22:32 | 25.84666 | -80.85980 | 8277 ft | 312 kts | 104° |
| 2026-05-04 22:32 | 25.84448 | -80.83604 | 8021 ft | 306 kts | 89° |
| 2026-05-04 22:32 | 25.84627 | -80.81276 | 8018 ft | 302 kts | 85° |
| 2026-05-04 22:33 | 25.84814 | -80.78951 | 7730 ft | 301 kts | 85° |
| 2026-05-04 22:33 | 25.84991 | -80.76640 | 7418 ft | 299 kts | 85° |
| 2026-05-04 22:33 | 25.85162 | -80.74356 | 7102 ft | 294 kts | 85° |
| 2026-05-04 22:33 | 25.85330 | -80.72135 | 6799 ft | 282 kts | 85° |
| 2026-05-04 22:34 | 25.85494 | -80.70006 | 6492 ft | 272 kts | 85° |
| 2026-05-04 22:34 | 25.85654 | -80.67952 | 6172 ft | 263 kts | 85° |
| 2026-05-04 22:34 | 25.85809 | -80.65950 | 5876 ft | 257 kts | 85° |
| 2026-05-04 22:34 | 25.85960 | -80.63999 | 5562 ft | 252 kts | 85° |
| 2026-05-04 22:35 | 25.86105 | -80.62096 | 5236 ft | 248 kts | 85° |
| 2026-05-04 22:35 | 25.86253 | -80.60193 | 4921 ft | 245 kts | 85° |
| 2026-05-04 22:35 | 25.86398 | -80.58322 | 4601 ft | 241 kts | 85° |
| 2026-05-04 22:35 | 25.86539 | -80.56479 | 4277 ft | 238 kts | 85° |
| 2026-05-04 22:36 | 25.86676 | -80.54666 | 3957 ft | 233 kts | 84° |
| 2026-05-04 22:36 | 25.86811 | -80.52886 | 3652 ft | 229 kts | 82° |
| 2026-05-04 22:36 | 25.86943 | -80.51142 | 3331 ft | 226 kts | 83° |
| 2026-05-04 22:36 | 25.87072 | -80.49419 | 3051 ft | 220 kts | 83° |
| 2026-05-04 22:37 | 25.87193 | -80.47786 | 3000 ft | 203 kts | 83° |
| 2026-05-04 22:37 | 25.87308 | -80.46250 | 3009 ft | 198 kts | 82° |
| 2026-05-04 22:37 | 25.87203 | -80.44741 | 2843 ft | 193 kts | 102° |
| 2026-05-04 22:37 | 25.86660 | -80.43419 | 2654 ft | 186 kts | 116° |
| 2026-05-04 22:38 | 25.86027 | -80.42181 | 2393 ft | 183 kts | 115° |
| 2026-05-04 22:38 | 25.85399 | -80.40948 | 2155 ft | 183 kts | 114° |
| 2026-05-04 22:38 | 25.84786 | -80.39751 | 1914 ft | 167 kts | 113° |
| 2026-05-04 22:38 | 25.84243 | -80.38692 | 1702 ft | 152 kts | 112° |
| 2026-05-04 22:39 | 25.83735 | -80.37692 | 1504 ft | 147 kts | 112° |
| 2026-05-04 22:39 | 25.83234 | -80.36708 | 1324 ft | 146 kts | 113° |
| 2026-05-04 22:39 | 25.82736 | -80.35730 | 1131 ft | 146 kts | 113° |
| 2026-05-04 22:39 | 25.82235 | -80.34748 | 940 ft | 146 kts | 114° |
| 2026-05-04 22:40 | 25.81730 | -80.33757 | 763 ft | 148 kts | 117° |
| 2026-05-04 22:40 | 25.81223 | -80.32771 | 571 ft | 147 kts | 118° |
| 2026-05-04 22:40 | 25.80729 | -80.31780 | 378 ft | 145 kts | 117° |
| 2026-05-04 22:40 | 25.80227 | -80.30812 | 205 ft | 144 kts | 116° |
| 2026-05-04 22:41 | 25.79733 | -80.29858 | 45 ft | 139 kts | 118° |
| 2026-05-04 22:41 | 25.79370 | -80.29134 | 14 ft | 67 kts | 120° |
| 2026-05-04 22:41 | 25.79241 | -80.28876 | 13 ft | 32 kts | 118° |
| 2026-05-04 22:41 | 25.79202 | -80.28709 | 14 ft | 6 kts | 86° |
| 2026-05-04 22:42 | 25.79206 | -80.28679 | 14 ft | 8 kts | 81° |
| 2026-05-04 22:42 | 25.79260 | -80.28609 | 15 ft | 17 kts | 33° |
| 2026-05-04 22:42 | 25.79267 | -80.28498 | 17 ft | 15 kts | 119° |
| 2026-05-04 22:42 | 25.79193 | -80.28399 | 15 ft | 12 kts | 150° |
| 2026-05-04 22:43 | 25.79128 | -80.28298 | 16 ft | 17 kts | 120° |
| 2026-05-04 22:43 | 25.79078 | -80.28203 | 16 ft | 11 kts | 120° |
| 2026-05-04 22:43 | 25.79052 | -80.28152 | 16 ft | 15 kts | 120° |
| 2026-05-04 22:43 | 25.78976 | -80.28003 | 16 ft | 25 kts | 119° |
| 2026-05-04 22:44 | 25.78939 | -80.27877 | 16 ft | 15 kts | 87° |
| 2026-05-04 22:44 | 25.79015 | -80.27816 | 15 ft | 14 kts | 22° |
| 2026-05-04 22:44 | 25.79110 | -80.27778 | 15 ft | 15 kts | 9° |
| 2026-05-04 22:44 | 25.79181 | -80.27764 | 15 ft | 4 kts | 43° |
| 2026-05-04 22:45 | 25.79181 | -80.27730 | 15 ft | 5 kts | 102° |
| 2026-05-04 22:45 | 25.79176 | -80.27705 | 15 ft | 0 kts | 103° |